This is the latest recevied weather packets stored in our database for station/object N9ALD. If no packets are shown the sender has not sent any weather packets the latest 1 day(s).
| Time | Temp. | Humidity | Pressure | Rain* | Wind** | Luminosity | Snow |
|---|---|---|---|---|---|---|---|
| 1778084374 | 13.89° C | 60% | 1010.9 hPa | 0 mm | - | 221 W/m² | - |
| 1778084072 | 13.89° C | 59% | 1010.9 hPa | 0 mm | - | 240 W/m² | - |
| 1778083769 | 13.89° C | 60% | 1010.8 hPa | 0 mm | - | 304 W/m² | - |
| 1778083164 | 13.89° C | 63% | 1010.8 hPa | 0 mm | - | 380 W/m² | - |
| 1778082861 | 13.33° C | 63% | 1010.4 hPa | 0 mm | - | 378 W/m² | - |
| 1778081440 | 12.22° C | 67% | 1010.7 hPa | 0 mm | - | 217 W/m² | - |
| 1778081137 | 12.22° C | 66% | 1010.8 hPa | 0 mm | - | 272 W/m² | - |
| 1778080835 | 11.67° C | 70% | 1010.6 hPa | 0 mm | - | 290 W/m² | - |
| 1778079926 | 11.67° C | 69% | 1010.4 hPa | 0 mm | - | 266 W/m² | - |
| 1778079623 | 11.11° C | 72% | 1010.5 hPa | 0 mm | - | 257 W/m² | - |
| 1778075081 | 10° C | 87% | 1010.1 hPa | 0 mm | - | 401 W/m² | - |
| 1778074778 | 10° C | 85% | 1009.9 hPa | 0 mm | - | 416 W/m² | - |
| 1778074475 | 10° C | 85% | 1010 hPa | 0 mm | - | 405 W/m² | - |
| 1778073869 | 10° C | 86% | 1009.6 hPa | 0 mm | - | 204 W/m² | - |
| 1778072960 | 9.44° C | 93% | 1009.8 hPa | 0 mm | - | 336 W/m² | - |
| 1778072656 | 8.89° C | 95% | 1009.6 hPa | 0 mm | - | 296 W/m² | - |
| 1778072354 | 8.89° C | 95% | 1009.7 hPa | 0 mm | - | 139 W/m² | - |
| 1778071145 | 8.89° C | 97% | 1009.9 hPa | 0 mm | - | 55 W/m² | - |
| 1778070843 | 8.89° C | 97% | 1009.8 hPa | 0 mm | - | 55 W/m² | - |
| 1778069935 | 8.33° C | 99% | 1009.5 hPa | 0 mm | - | 120 W/m² | - |
| 1778066909 | 6.67° C | 99% | 1008.4 hPa | 0 mm | - | 25 W/m² | - |
| 1778065699 | 6.67° C | 99% | 1008.3 hPa | 0 mm | - | 15 W/m² | - |
| 1778064487 | 6.67° C | 98% | 1007.6 hPa | 0 mm | - | 4 W/m² | - |
| 1778063579 | 7.22° C | 98% | 1007.5 hPa | 0 mm | - | 1 W/m² | - |
| 1778063276 | 7.22° C | 98% | 1007.6 hPa | 0 mm | - | 0 W/m² | - |
* Rain latest hour (hover to see other rain measurements)
** Current wind speed in m/s (hover to see current wind gust speed)